Date,TemperatureHighF,TemperatureAvgF,TemperatureLowF,DewpointHighF,DewpointAvgF,DewpointLowF,HumidityHigh,HumidityAvg,HumidityLow,PressureMaxIn,PressureMinIn,WindSpeedMaxMPH,WindSpeedAvgMPH,GustSpeedMaxMPH,PrecipitationSumIn
2013-2-1,43.1,33.8,29.5,37.6,32.1,28.8,98,94,80,30.41,30.28,5,0,5,0.00
2013-2-2,45.9,34.0,27.0,40.5,32.5,26.1,98,94,77,30.40,30.33,4,0,4,0.01
2013-2-3,44.2,33.7,25.8,38.4,31.8,24.8,98,93,77,30.40,30.28,3,0,3,0.00
2013-2-4,45.2,36.9,30.0,39.3,34.2,29.1,98,90,77,30.30,30.03,5,0,5,0.00
2013-2-5,43.1,37.5,32.2,41.0,35.7,30.5,97,94,79,30.19,30.04,11,0,12,0.09
2013-2-6,48.4,38.4,30.4,39.7,33.9,28.4,98,84,59,30.21,29.98,8,1,10,0.01
2013-2-7,42.7,36.0,32.1,35.6,32.5,27.8,98,88,58,30.08,29.98,11,1,11,0.20
2013-2-8,40.3,34.6,31.0,34.1,30.5,26.4,98,86,66,30.27,30.07,10,1,11,0.05
2013-2-9,43.8,36.8,30.2,33.1,29.0,24.9,87,74,59,30.29,30.23,11,1,12,0.00
2013-2-10,48.4,36.9,29.0,36.9,31.9,27.3,95,83,61,30.32,30.22,9,1,9,0.00
2013-2-11,36.4,31.9,27.0,33.3,30.2,25.7,97,93,88,30.49,30.29,5,0,6,0.00
2013-2-12,49.7,37.5,30.2,38.9,33.7,29.3,98,87,62,30.58,30.49,13,1,13,0.00
2013-2-13,53.3,41.6,32.0,39.9,35.8,29.9,95,81,58,30.53,30.43,11,1,11,0.00
2013-2-14,54.5,45.4,38.8,42.6,37.9,33.1,89,75,59,30.53,30.40,8,1,9,0.00
2013-2-15,67.0,50.3,35.2,37.1,33.1,27.5,91,56,24,30.42,30.23,19,2,19,0.00
2013-2-16,56.9,44.8,34.6,38.0,33.3,29.3,87,65,43,30.28,30.14,13,2,13,0.00
2013-2-17,47.2,37.9,27.5,31.5,29.1,24.6,91,71,47,30.25,30.06,10,1,10,0.00
2013-2-18,42.7,34.7,28.1,33.5,28.7,23.3,92,79,66,30.07,29.82,12,1,12,0.00
2013-2-19,39.4,35.1,30.6,32.9,30.0,25.5,95,82,68,30.01,29.66,10,1,12,0.09
2013-2-20,45.2,37.7,31.8,33.4,30.5,27.4,96,77,51,30.15,30.01,9,1,10,0.00
2013-2-21,42.2,36.2,31.4,34.5,31.8,28.8,96,85,66,30.31,30.15,10,1,11,0.17
2013-2-22,49.9,37.8,30.2,39.5,33.6,27.8,97,86,58,30.33,30.08,18,1,18,0.17
2013-2-23,40.4,34.9,30.8,33.6,30.5,27.9,96,84,68,30.47,30.19,11,2,12,0.02
2013-2-24,46.6,34.9,25.4,36.1,29.8,22.9,92,82,62,30.49,30.25,9,1,10,0.00
2013-2-25,45.9,38.7,33.1,37.7,31.6,23.3,97,77,43,30.42,30.24,20,2,20,0.04
2013-2-26,51.5,37.2,26.2,33.2,27.7,18.3,90,70,29,30.42,30.27,12,1,13,0.00
2013-2-27,53.7,41.1,30.1,37.3,30.8,24.5,84,68,44,30.40,30.32,13,1,13,0.00
2013-2-28,51.6,45.8,41.3,46.3,42.5,36.5,95,89,75,30.54,30.33,5,0,6,0.01